createdAt,value
2018-11-14T00:00:30.557Z,7.17
2018-11-14T00:01:05.168Z,7.05
2018-11-14T00:01:39.297Z,7.37
2018-11-14T00:02:13.502Z,6.95
2018-11-14T00:02:47.940Z,6.95
2018-11-14T00:03:22.062Z,7.42
2018-11-14T00:03:56.181Z,7.17
2018-11-14T00:04:30.257Z,7.05
2018-11-14T00:05:04.572Z,7.17
2018-11-14T00:05:38.402Z,7.53
2018-11-14T00:06:12.477Z,7.03
2018-11-14T00:06:46.625Z,7.15
2018-11-14T00:07:21.113Z,6.33
2018-11-14T00:07:55.281Z,7.40
2018-11-14T00:08:29.426Z,6.83
2018-11-14T00:09:04.053Z,6.78
2018-11-14T00:09:38.258Z,6.78
2018-11-14T00:10:12.604Z,7.58
2018-11-14T00:10:47.278Z,6.90
2018-11-14T00:11:21.570Z,6.87
2018-11-14T00:11:56.161Z,7.25
2018-11-14T00:12:30.329Z,8.08
2018-11-14T00:13:04.814Z,7.35
2018-11-14T00:13:38.938Z,7.05
2018-11-14T00:14:13.078Z,6.92
2018-11-14T00:14:47.241Z,7.12
2018-11-14T00:15:23.124Z,6.77
2018-11-14T00:15:57.218Z,6.45
2018-11-14T00:16:31.700Z,7.00
2018-11-14T00:17:05.889Z,6.67
2018-11-14T00:17:40.633Z,6.80
2018-11-14T00:18:14.814Z,6.23
2018-11-14T00:18:48.930Z,6.70
2018-11-14T00:19:23.113Z,7.40
2018-11-14T00:19:57.432Z,7.53
2018-11-14T00:20:31.848Z,6.55
2018-11-14T00:21:06.271Z,6.92
2018-11-14T00:21:40.394Z,5.70
2018-11-14T00:22:14.256Z,7.37
2018-11-14T00:22:49.259Z,6.70
2018-11-14T00:23:23.398Z,6.03
2018-11-14T00:23:57.500Z,6.75
2018-11-14T00:24:31.634Z,7.10
2018-11-14T00:25:06.158Z,7.08
2018-11-14T00:25:40.265Z,6.37
2018-11-14T00:26:14.390Z,6.55
2018-11-14T00:26:48.537Z,6.40
2018-11-14T00:27:22.530Z,6.73
2018-11-14T00:27:56.735Z,7.10
2018-11-14T00:28:30.994Z,6.30
2018-11-14T00:29:05.216Z,6.73
2018-11-14T00:29:39.145Z,5.93
2018-11-14T00:30:15.777Z,5.92
2018-11-14T00:30:50.413Z,6.15
2018-11-14T00:31:24.588Z,6.05
2018-11-14T00:31:58.634Z,5.90
2018-11-14T00:32:32.787Z,6.47
2018-11-14T00:33:06.714Z,6.13
2018-11-14T00:33:40.829Z,5.95
2018-11-14T00:34:15.049Z,5.70
2018-11-14T00:34:49.593Z,6.35
2018-11-14T00:35:23.861Z,6.00
2018-11-14T00:35:58.065Z,6.23
2018-11-14T00:36:32.523Z,5.28
2018-11-14T00:37:06.498Z,5.87
2018-11-14T00:37:41.132Z,7.08
2018-11-14T00:38:15.312Z,5.90
2018-11-14T00:38:49.426Z,5.75
2018-11-14T00:39:30.291Z,6.05
2018-11-14T00:40:04.706Z,5.97
2018-11-14T00:40:38.814Z,5.30
2018-11-14T00:41:12.942Z,5.97
2018-11-14T00:41:47.454Z,5.10
2018-11-14T00:42:21.598Z,5.97
2018-11-14T00:42:55.708Z,5.65
2018-11-14T00:43:29.533Z,5.40
2018-11-14T00:44:03.990Z,5.60
2018-11-14T00:44:38.130Z,5.70
2018-11-14T00:45:14.614Z,6.10
2018-11-14T00:45:48.437Z,5.50
2018-11-14T00:46:22.301Z,5.40
2018-11-14T00:46:56.231Z,5.40
2018-11-14T00:47:30.362Z,6.15
2018-11-14T00:48:04.969Z,5.80
2018-11-14T00:48:39.048Z,4.70
2018-11-14T00:49:12.909Z,5.80
2018-11-14T00:49:47.030Z,5.20
2018-11-14T00:50:21.502Z,5.00
2018-11-14T00:50:55.327Z,5.47
2018-11-14T00:51:29.465Z,5.42
2018-11-14T00:52:03.319Z,5.23
2018-11-14T00:52:37.810Z,5.53
2018-11-14T00:53:11.718Z,4.77
2018-11-14T00:53:45.801Z,4.90
2018-11-14T00:54:19.892Z,5.25
2018-11-14T00:54:53.730Z,5.00
2018-11-14T00:55:28.264Z,4.80
2018-11-14T00:56:02.110Z,5.80
2018-11-14T00:56:36.161Z,5.25
2018-11-14T00:57:09.978Z,4.30
2018-11-14T00:57:45.430Z,5.87
2018-11-14T00:58:19.523Z,4.90
2018-11-14T00:58:53.904Z,5.25
2018-11-14T00:59:28.328Z,4.58
2018-11-14T01:00:02.469Z,5.35
2018-11-14T01:00:36.799Z,6.07
2018-11-14T01:01:10.661Z,5.10
2018-11-14T01:01:45.061Z,5.17
2018-11-14T01:02:18.938Z,5.20
2018-11-14T01:02:52.913Z,6.00
2018-11-14T01:03:26.756Z,5.30
2018-11-14T01:04:00.594Z,5.17
2018-11-14T01:04:35.022Z,5.15
2018-11-14T01:05:10.152Z,6.03
2018-11-14T01:05:44.279Z,5.70
2018-11-14T01:06:18.385Z,4.97
2018-11-14T01:06:52.484Z,5.47
2018-11-14T01:07:26.592Z,5.65
2018-11-14T01:08:00.414Z,5.47
2018-11-14T01:08:34.571Z,5.33
2018-11-14T01:09:09.998Z,4.70
2018-11-14T01:09:44.233Z,4.83
2018-11-14T01:10:19.281Z,5.60
2018-11-14T01:11:00.481Z,6.00
2018-11-14T01:11:34.558Z,5.30
2018-11-14T01:12:08.760Z,5.72
2018-11-14T01:12:43.798Z,5.70
2018-11-14T01:13:18.282Z,5.60
2018-11-14T01:13:52.482Z,4.92
2018-11-14T01:14:26.915Z,5.33
2018-11-14T01:15:01.018Z,5.47
2018-11-14T01:15:35.458Z,5.50
2018-11-14T01:16:09.906Z,5.65
2018-11-14T01:16:44.358Z,5.42
2018-11-14T01:17:18.473Z,5.67
2018-11-14T01:17:52.775Z,5.60
2018-11-14T01:18:26.887Z,5.12
2018-11-14T01:19:00.687Z,5.03
2018-11-14T01:19:34.526Z,6.00
2018-11-14T01:20:10.648Z,5.30
2018-11-14T01:20:44.521Z,6.00
2018-11-14T01:21:18.876Z,5.50
2018-11-14T01:21:53.046Z,5.77
2018-11-14T01:22:27.166Z,5.12
2018-11-14T01:23:01.265Z,4.65
2018-11-14T01:23:35.717Z,5.60
2018-11-14T01:24:10.182Z,5.45
2018-11-14T01:24:44.650Z,4.80
2018-11-14T01:25:19.679Z,5.42
2018-11-14T01:25:53.778Z,5.85
2018-11-14T01:26:27.906Z,5.47
2018-11-14T01:27:02.345Z,5.62
2018-11-14T01:27:36.678Z,4.80
2018-11-14T01:28:10.878Z,5.70
2018-11-14T01:28:44.706Z,5.43
2018-11-14T01:29:18.554Z,4.90
2018-11-14T01:29:52.671Z,5.90
2018-11-14T01:30:26.774Z,5.08
2018-11-14T01:31:00.876Z,5.20
2018-11-14T01:31:34.983Z,5.15
2018-11-14T01:32:09.086Z,5.53
2018-11-14T01:32:44.529Z,5.55
2018-11-14T01:33:18.962Z,4.78
2018-11-14T01:33:53.365Z,5.17
2018-11-14T01:34:27.668Z,5.42
2018-11-14T01:35:01.766Z,4.90
2018-11-14T01:35:35.921Z,5.08
2018-11-14T01:36:10.038Z,4.90
2018-11-14T01:36:44.339Z,5.47
2018-11-14T01:37:18.446Z,4.78
2018-11-14T01:37:52.534Z,4.90
2018-11-14T01:38:26.637Z,5.22
2018-11-14T01:39:01.119Z,5.57
2018-11-14T01:39:34.969Z,6.50
2018-11-14T01:40:18.562Z,5.62
2018-11-14T01:40:52.661Z,4.58
2018-11-14T01:41:26.518Z,6.33
2018-11-14T01:42:00.950Z,5.75
2018-11-14T01:42:35.052Z,5.33
2018-11-14T01:43:09.177Z,5.15
2018-11-14T01:43:43.251Z,5.05
2018-11-14T01:44:17.718Z,5.28
2018-11-14T01:44:59.824Z,5.00
2018-11-14T01:45:33.924Z,5.60
2018-11-14T01:46:08.328Z,5.47
2018-11-14T01:46:42.760Z,5.20
2018-11-14T01:47:16.594Z,5.10
2018-11-14T01:47:50.464Z,5.13
2018-11-14T01:48:24.336Z,5.80
2018-11-14T01:48:58.462Z,5.55
2018-11-14T01:49:32.290Z,5.87
2018-11-14T01:50:07.536Z,4.77
2018-11-14T01:50:41.668Z,5.22
2018-11-14T01:51:16.110Z,5.40
2018-11-14T01:51:51.182Z,4.77
2018-11-14T01:52:26.316Z,5.25
2018-11-14T01:53:00.152Z,4.83
2018-11-14T01:53:34.368Z,5.57
2018-11-14T01:54:08.468Z,4.70
2018-11-14T01:54:42.400Z,5.00
2018-11-14T01:55:17.746Z,5.42
2018-11-14T01:55:52.530Z,4.85
2018-11-14T01:56:26.670Z,5.40
2018-11-14T01:57:00.870Z,5.50
2018-11-14T01:57:34.678Z,5.03
2018-11-14T01:58:09.385Z,5.00
2018-11-14T01:58:43.513Z,5.12
2018-11-14T01:59:17.630Z,5.05
2018-11-14T01:59:51.968Z,4.43
2018-11-14T02:00:26.396Z,5.90
2018-11-14T02:01:00.494Z,5.30
2018-11-14T02:01:34.612Z,4.65
2018-11-14T02:02:08.720Z,5.10
2018-11-14T02:02:43.142Z,5.00
2018-11-14T02:03:16.992Z,4.70
2018-11-14T02:03:51.114Z,4.67
2018-11-14T02:04:25.186Z,4.80
2018-11-14T02:04:59.284Z,5.05
2018-11-14T02:05:33.686Z,4.62
2018-11-14T02:06:07.748Z,4.60
2018-11-14T02:06:42.512Z,4.87
2018-11-14T02:07:16.606Z,4.97
2018-11-14T02:07:50.682Z,5.25
2018-11-14T02:08:24.788Z,5.20
2018-11-14T02:08:59.232Z,4.90
2018-11-14T02:09:33.320Z,5.12
2018-11-14T02:10:08.780Z,5.00
2018-11-14T02:10:42.591Z,5.00
2018-11-14T02:11:17.020Z,5.03
2018-11-14T02:11:51.454Z,4.30
2018-11-14T02:12:25.546Z,4.50
2018-11-14T02:13:00.000Z,4.55
2018-11-14T02:13:34.449Z,5.28
2018-11-14T02:14:08.884Z,5.17
2018-11-14T02:14:43.070Z,5.08
2018-11-14T02:15:18.606Z,4.70
2018-11-14T02:15:53.027Z,5.05
2018-11-14T02:16:27.088Z,4.40
2018-11-14T02:17:01.156Z,4.70
2018-11-14T02:17:35.224Z,4.80
2018-11-14T02:18:09.652Z,5.28
2018-11-14T02:18:43.752Z,5.53
2018-11-14T02:19:17.849Z,5.15
2018-11-14T02:19:52.257Z,5.05
2018-11-14T02:20:26.377Z,5.15
2018-11-14T02:21:00.436Z,5.33
2018-11-14T02:21:34.530Z,4.90
2018-11-14T02:22:09.110Z,4.58
2018-11-14T02:22:44.542Z,4.70
2018-11-14T02:23:18.972Z,5.28
2018-11-14T02:23:53.742Z,4.85
2018-11-14T02:24:28.196Z,4.80
2018-11-14T02:25:02.600Z,4.50
2018-11-14T02:25:36.664Z,5.00
2018-11-14T02:26:11.286Z,5.37
2018-11-14T02:26:45.404Z,4.35
2018-11-14T02:27:19.994Z,5.00
2018-11-14T02:27:54.054Z,3.98
2018-11-14T02:28:28.166Z,5.08
2018-11-14T02:29:02.250Z,5.15
2018-11-14T02:29:36.706Z,4.80
2018-11-14T02:30:16.130Z,5.12
2018-11-14T02:30:50.260Z,4.30
2018-11-14T02:31:24.077Z,4.70
2018-11-14T02:31:58.327Z,5.65
2018-11-14T02:32:32.176Z,4.20
2018-11-14T02:33:06.490Z,5.77
2018-11-14T02:33:40.656Z,5.23
2018-11-14T02:34:15.085Z,5.20
2018-11-14T02:34:49.230Z,4.80
2018-11-14T02:35:23.089Z,4.80
2018-11-14T02:35:57.361Z,4.05
2018-11-14T02:36:31.497Z,5.35
2018-11-14T02:37:05.659Z,5.03
2018-11-14T02:37:41.384Z,4.22
2018-11-14T02:38:15.472Z,5.65
2018-11-14T02:38:49.336Z,4.10
2018-11-14T02:39:23.214Z,4.87
2018-11-14T02:39:57.316Z,5.05
2018-11-14T02:40:31.410Z,5.40
2018-11-14T02:41:05.865Z,4.60
2018-11-14T02:41:39.952Z,4.65
2018-11-14T02:42:14.118Z,4.83
2018-11-14T02:42:48.226Z,4.37
2018-11-14T02:43:22.367Z,4.53
2018-11-14T02:43:56.933Z,4.42
2018-11-14T02:44:31.348Z,5.50
2018-11-14T02:45:05.551Z,5.00
2018-11-14T02:45:39.650Z,4.75
2018-11-14T02:46:14.114Z,5.58
2018-11-14T02:46:48.218Z,4.83
2018-11-14T02:47:22.383Z,4.87
2018-11-14T02:47:56.559Z,4.67
2018-11-14T02:48:30.403Z,5.27
2018-11-14T02:49:04.475Z,4.93
2018-11-14T02:49:38.581Z,5.50
2018-11-14T02:50:14.332Z,4.67
2018-11-14T02:50:52.666Z,4.90
2018-11-14T02:51:29.074Z,5.50
2018-11-14T02:52:03.161Z,5.37
2018-11-14T02:52:37.343Z,5.10
2018-11-14T02:53:11.746Z,4.70
2018-11-14T02:53:45.832Z,4.62
2018-11-14T02:54:20.233Z,5.58
2018-11-14T02:54:54.342Z,3.80
2018-11-14T02:55:28.462Z,4.55
2018-11-14T02:56:06.490Z,5.20
2018-11-14T02:56:40.593Z,3.83
2018-11-14T02:57:14.702Z,5.25
2018-11-14T02:57:48.538Z,4.30
2018-11-14T02:58:22.356Z,5.30
2018-11-14T02:58:56.510Z,4.72
2018-11-14T02:59:30.375Z,4.80
2018-11-14T03:00:04.731Z,4.30
2018-11-14T03:00:38.889Z,5.37
2018-11-14T03:01:13.487Z,4.83
2018-11-14T03:01:47.644Z,4.80
2018-11-14T03:02:21.519Z,4.53
2018-11-14T03:02:55.631Z,4.55
2018-11-14T03:03:30.042Z,5.15
2018-11-14T03:04:04.787Z,4.42
2018-11-14T03:04:38.637Z,4.50
2018-11-14T03:05:12.746Z,4.50
2018-11-14T03:05:46.570Z,5.30
2018-11-14T03:06:20.403Z,4.17
2018-11-14T03:06:54.550Z,4.40
2018-11-14T03:07:28.978Z,5.20
2018-11-14T03:08:03.095Z,5.12
2018-11-14T03:08:36.970Z,4.00
2018-11-14T03:09:11.158Z,5.20
2018-11-14T03:09:45.017Z,4.70
2018-11-14T03:10:20.992Z,4.80
2018-11-14T03:10:54.849Z,5.13
2018-11-14T03:11:28.688Z,4.70
2018-11-14T03:12:02.512Z,5.03
2018-11-14T03:12:36.653Z,3.92
2018-11-14T03:13:10.656Z,4.20
2018-11-14T03:13:45.059Z,5.22
2018-11-14T03:14:19.463Z,5.47
2018-11-14T03:14:53.596Z,4.37
2018-11-14T03:15:27.409Z,3.97
2018-11-14T03:16:01.542Z,4.40
2018-11-14T03:16:35.950Z,5.12
2018-11-14T03:17:10.396Z,4.20
2018-11-14T03:17:44.582Z,5.10
2018-11-14T03:18:19.069Z,4.12
2018-11-14T03:18:53.521Z,3.90
2018-11-14T03:19:27.660Z,3.95
2018-11-14T03:20:01.805Z,4.90
2018-11-14T03:20:35.637Z,4.50
2018-11-14T03:21:09.733Z,4.42
2018-11-14T03:21:43.829Z,4.37
2018-11-14T03:22:17.915Z,4.70
2018-11-14T03:22:51.993Z,5.17
2018-11-14T03:23:26.142Z,4.43
2018-11-14T03:24:00.245Z,4.90
2018-11-14T03:24:34.372Z,4.87
2018-11-14T03:25:09.466Z,4.60
2018-11-14T03:25:43.775Z,4.55
2018-11-14T03:26:18.220Z,4.47
2018-11-14T03:26:52.346Z,3.90
2018-11-14T03:27:26.409Z,5.65
2018-11-14T03:28:00.812Z,5.15
2018-11-14T03:28:34.888Z,4.42
2018-11-14T03:29:08.965Z,4.33
2018-11-14T03:29:43.048Z,4.28
2018-11-14T03:30:18.388Z,4.12
2018-11-14T03:30:52.805Z,5.30
2018-11-14T03:31:27.223Z,4.42
2018-11-14T03:32:01.320Z,4.83
2018-11-14T03:32:35.428Z,4.67
2018-11-14T03:33:10.372Z,4.03
2018-11-14T03:33:45.137Z,4.47
2018-11-14T03:34:19.225Z,5.00
2018-11-14T03:34:53.318Z,5.22
2018-11-14T03:35:31.417Z,3.47
2018-11-14T03:36:10.858Z,4.10
2018-11-14T03:36:44.696Z,4.50
2018-11-14T03:37:18.764Z,4.12
2018-11-14T03:37:52.845Z,3.70
2018-11-14T03:38:26.914Z,4.15
2018-11-14T03:39:01.333Z,4.47
2018-11-14T03:39:35.782Z,4.92
2018-11-14T03:40:12.008Z,4.40
2018-11-14T03:40:46.080Z,4.28
2018-11-14T03:41:20.512Z,4.20
2018-11-14T03:41:54.694Z,4.10
2018-11-14T03:42:28.813Z,4.33
2018-11-14T03:43:02.931Z,4.50
2018-11-14T03:43:37.033Z,4.08
2018-11-14T03:44:11.455Z,4.03
2018-11-14T03:44:45.529Z,3.95
2018-11-14T03:45:19.696Z,4.20
2018-11-14T03:45:53.774Z,4.08
2018-11-14T03:46:28.203Z,4.37
2018-11-14T03:47:02.284Z,4.15
2018-11-14T03:47:36.413Z,4.85
2018-11-14T03:48:10.857Z,3.45
2018-11-14T03:48:45.343Z,3.33
2018-11-14T03:49:19.424Z,4.50
2018-11-14T03:49:53.279Z,4.20
2018-11-14T03:50:27.352Z,3.98
2018-11-14T03:51:02.146Z,3.80
2018-11-14T03:51:36.235Z,5.12
2018-11-14T03:52:10.425Z,4.03
2018-11-14T03:52:44.538Z,4.15
2018-11-14T03:53:18.956Z,4.15
2018-11-14T03:53:53.045Z,4.40
2018-11-14T03:54:27.129Z,4.22
2018-11-14T03:55:00.982Z,3.80
2018-11-14T03:55:35.360Z,4.33
2018-11-14T03:56:09.860Z,3.70
2018-11-14T03:56:44.271Z,3.55
2018-11-14T03:57:18.347Z,3.92
2018-11-14T03:57:52.515Z,4.63
2018-11-14T03:58:26.696Z,3.55
2018-11-14T03:59:00.922Z,3.50
2018-11-14T03:59:35.017Z,4.15
2018-11-14T04:00:11.925Z,3.50
2018-11-14T04:00:46.547Z,4.80
2018-11-14T04:01:20.596Z,4.10
2018-11-14T04:01:54.436Z,4.37
2018-11-14T04:02:28.580Z,3.80
2018-11-14T04:03:02.441Z,4.80
2018-11-14T04:03:36.829Z,4.20
2018-11-14T04:04:10.999Z,4.10
2018-11-14T04:04:45.691Z,3.83
2018-11-14T04:05:19.971Z,3.97
2018-11-14T04:05:53.975Z,4.77
2018-11-14T04:06:28.098Z,4.42
2018-11-14T04:07:02.066Z,4.00
2018-11-14T04:07:35.929Z,3.90
2018-11-14T04:08:09.761Z,3.53
2018-11-14T04:08:43.837Z,4.22
2018-11-14T04:09:17.717Z,3.60
2018-11-14T04:09:51.933Z,4.75
2018-11-14T04:10:26.456Z,4.60
2018-11-14T04:11:00.906Z,5.05
2018-11-14T04:11:35.320Z,4.25
2018-11-14T04:12:09.126Z,4.20
2018-11-14T04:12:43.166Z,4.20
2018-11-14T04:13:16.997Z,4.03
2018-11-14T04:13:51.324Z,4.30
2018-11-14T04:14:25.381Z,4.03
2018-11-14T04:14:59.453Z,4.83
2018-11-14T04:15:33.317Z,4.20
2018-11-14T04:16:07.555Z,4.37
2018-11-14T04:16:41.393Z,4.20
2018-11-14T04:17:15.249Z,4.17
2018-11-14T04:17:50.041Z,4.10
2018-11-14T04:18:23.857Z,4.13
2018-11-14T04:18:57.961Z,4.70
2018-11-14T04:19:32.097Z,4.87
2018-11-14T04:20:07.328Z,4.57
2018-11-14T04:20:41.189Z,4.67
2018-11-14T04:21:15.331Z,3.90
2018-11-14T04:21:49.473Z,5.60
2018-11-14T04:22:23.269Z,4.93
2018-11-14T04:22:57.457Z,4.60
2018-11-14T04:23:31.260Z,5.00
2018-11-14T04:24:05.665Z,4.80
2018-11-14T04:24:39.819Z,5.70
2018-11-14T04:25:16.156Z,4.37
2018-11-14T04:25:50.288Z,4.60
2018-11-14T04:26:24.380Z,5.08
2018-11-14T04:26:58.965Z,3.87
2018-11-14T04:27:32.757Z,4.30
2018-11-14T04:28:07.512Z,4.70
2018-11-14T04:28:41.653Z,4.73
2018-11-14T04:29:15.760Z,4.83
2018-11-14T04:29:49.819Z,4.47
2018-11-14T04:30:24.355Z,4.70
2018-11-14T04:30:58.436Z,4.30
2018-11-14T04:31:33.174Z,4.42
2018-11-14T04:32:07.347Z,3.83
2018-11-14T04:32:42.178Z,5.37
2018-11-14T04:33:16.408Z,4.03
2018-11-14T04:33:51.529Z,4.03
2018-11-14T04:34:25.309Z,4.07
2018-11-14T04:34:59.455Z,4.50
2018-11-14T04:35:33.303Z,4.13
2018-11-14T04:36:08.121Z,4.92
2018-11-14T04:36:42.047Z,4.03
2018-11-14T04:37:16.149Z,4.65
2018-11-14T04:37:50.738Z,4.92
2018-11-14T04:38:24.929Z,3.98
2018-11-14T04:38:59.081Z,4.65
2018-11-14T04:39:33.231Z,4.30
2018-11-14T04:40:08.969Z,4.13
2018-11-14T04:40:43.085Z,4.30
2018-11-14T04:41:17.276Z,4.70
2018-11-14T04:41:51.929Z,4.55
2018-11-14T04:42:26.014Z,4.40
2018-11-14T04:43:00.217Z,4.77
2018-11-14T04:43:34.866Z,4.55
2018-11-14T04:44:08.969Z,4.67
2018-11-14T04:44:43.209Z,5.17
2018-11-14T04:45:20.036Z,4.07
2018-11-14T04:45:54.231Z,4.80
2018-11-14T04:46:28.097Z,5.10
2018-11-14T04:47:01.913Z,5.00
2018-11-14T04:47:36.439Z,5.37
2018-11-14T04:48:10.900Z,4.72
2018-11-14T04:48:45.185Z,4.10
2018-11-14T04:49:19.701Z,4.17
2018-11-14T04:49:53.781Z,4.92
2018-11-14T04:50:28.205Z,4.55
2018-11-14T04:51:02.967Z,4.85
2018-11-14T04:51:37.083Z,4.90
2018-11-14T04:52:12.745Z,4.78
2018-11-14T04:52:48.338Z,4.90
2018-11-14T04:53:22.397Z,4.35
2018-11-14T04:53:56.537Z,5.22
2018-11-14T04:54:31.075Z,4.72
2018-11-14T04:55:06.764Z,5.00
2018-11-14T04:55:41.787Z,5.00
2018-11-14T04:56:15.861Z,5.10
2018-11-14T04:56:49.969Z,4.70
2018-11-14T04:57:24.505Z,4.78
2018-11-14T04:57:58.821Z,5.60
2018-11-14T04:58:33.225Z,5.90
2018-11-14T04:59:07.674Z,5.50
2018-11-14T04:59:41.921Z,5.75
2018-11-14T05:00:17.294Z,5.47
2018-11-14T05:00:51.149Z,5.37
2018-11-14T05:01:25.237Z,5.65
2018-11-14T05:01:59.690Z,5.50
2018-11-14T05:02:33.580Z,5.40
2018-11-14T05:03:07.907Z,5.50
2018-11-14T05:03:42.075Z,5.75
2018-11-14T05:04:16.297Z,6.17
2018-11-14T05:04:50.139Z,6.40
2018-11-14T05:05:25.085Z,5.70
2018-11-14T05:05:59.489Z,5.90
2018-11-14T05:06:33.928Z,5.40
2018-11-14T05:07:08.375Z,5.60
2018-11-14T05:07:43.225Z,5.12
2018-11-14T05:08:17.316Z,5.17
2018-11-14T05:08:51.433Z,5.50
2018-11-14T05:09:26.022Z,4.72
2018-11-14T05:10:00.245Z,5.70
2018-11-14T05:10:34.412Z,6.12
2018-11-14T05:11:08.612Z,5.13
2018-11-14T05:11:43.244Z,5.17
2018-11-14T05:12:17.339Z,5.58
2018-11-14T05:12:51.976Z,5.08
2018-11-14T05:13:26.345Z,5.72
2018-11-14T05:14:00.621Z,5.85
2018-11-14T05:14:35.385Z,6.08
2018-11-14T05:15:11.544Z,5.28
2018-11-14T05:15:45.401Z,5.10
2018-11-14T05:16:19.567Z,5.63
2018-11-14T05:16:54.005Z,5.20
2018-11-14T05:17:27.853Z,5.53
2018-11-14T05:18:02.037Z,5.55
2018-11-14T05:18:35.857Z,6.50
2018-11-14T05:19:10.017Z,5.70
2018-11-14T05:19:44.125Z,6.08
2018-11-14T05:20:19.263Z,5.12
2018-11-14T05:20:53.694Z,5.40
2018-11-14T05:21:27.817Z,5.22
2018-11-14T05:22:01.921Z,6.22
2018-11-14T05:22:36.241Z,5.12
2018-11-14T05:23:10.953Z,5.92
2018-11-14T05:23:45.111Z,6.83
2018-11-14T05:24:19.747Z,5.12
2018-11-14T05:24:53.683Z,5.60
2018-11-14T05:25:28.252Z,5.20
2018-11-14T05:26:02.831Z,5.60
2018-11-14T05:26:36.949Z,5.47
2018-11-14T05:27:11.143Z,5.60
2018-11-14T05:27:45.257Z,5.47
2018-11-14T05:28:19.769Z,4.67
2018-11-14T05:28:53.871Z,5.28
2018-11-14T05:29:28.665Z,5.15
2018-11-14T05:30:03.148Z,4.92
2018-11-14T05:30:37.333Z,4.85
2018-11-14T05:31:11.437Z,5.25
2018-11-14T05:31:45.601Z,4.95
2018-11-14T05:32:20.198Z,4.53
2018-11-14T05:32:54.305Z,5.10
2018-11-14T05:33:28.397Z,5.60
2018-11-14T05:34:02.810Z,4.70
2018-11-14T05:34:36.923Z,5.08
2018-11-14T05:35:11.509Z,5.27
2018-11-14T05:35:45.703Z,5.30
2018-11-14T05:36:20.299Z,5.60
2018-11-14T05:36:54.925Z,4.83
2018-11-14T05:37:29.013Z,4.60
2018-11-14T05:38:03.147Z,5.10
2018-11-14T05:38:37.221Z,5.05
2018-11-14T05:39:12.795Z,5.60
2018-11-14T05:39:46.752Z,4.97
2018-11-14T05:40:22.149Z,5.50
2018-11-14T05:40:56.649Z,5.30
2018-11-14T05:41:30.488Z,4.60
2018-11-14T05:42:05.846Z,5.33
2018-11-14T05:42:41.105Z,6.50
2018-11-14T05:43:16.339Z,6.72
2018-11-14T05:43:51.167Z,5.00
2018-11-14T05:44:25.719Z,6.15
2018-11-14T05:45:00.171Z,5.22
2018-11-14T05:45:34.257Z,5.43
2018-11-14T05:46:08.740Z,5.37
2018-11-14T05:46:42.943Z,5.10
2018-11-14T05:47:17.009Z,5.07
2018-11-14T05:47:50.973Z,5.17
2018-11-14T05:48:25.017Z,6.10
2018-11-14T05:48:59.711Z,5.30
2018-11-14T05:49:41.465Z,5.43
2018-11-14T05:50:17.037Z,5.47
2018-11-14T05:50:51.684Z,4.85
2018-11-14T05:51:25.959Z,5.75
2018-11-14T05:52:00.038Z,5.80
2018-11-14T05:52:34.301Z,5.60
2018-11-14T05:53:08.210Z,5.63
2018-11-14T05:53:42.993Z,5.57
2018-11-14T05:54:17.185Z,5.70
2018-11-14T05:54:51.722Z,5.45
2018-11-14T05:55:26.291Z,5.05
2018-11-14T05:56:00.375Z,5.05
2018-11-14T05:56:35.211Z,5.60
2018-11-14T05:57:10.340Z,5.37
2018-11-14T05:57:45.013Z,5.20
2018-11-14T05:58:19.986Z,5.33
2018-11-14T05:58:56.169Z,6.10
2018-11-14T05:59:30.513Z,5.20
2018-11-14T06:00:08.552Z,4.87
2018-11-14T06:00:43.276Z,6.00
2018-11-14T06:01:17.114Z,5.40
2018-11-14T06:01:51.529Z,5.58
2018-11-14T06:02:25.968Z,5.45
2018-11-14T06:03:01.862Z,6.05
2018-11-14T06:03:37.430Z,7.03
2018-11-14T06:04:11.769Z,5.65
2018-11-14T06:04:45.933Z,6.33
2018-11-14T06:05:20.636Z,5.58
2018-11-14T06:05:54.465Z,6.83
2018-11-14T06:06:29.468Z,5.78
2018-11-14T06:07:03.647Z,5.22
2018-11-14T06:07:38.279Z,5.60
2018-11-14T06:08:12.615Z,4.92
2018-11-14T06:08:47.105Z,6.28
2018-11-14T06:09:21.236Z,5.50
2018-11-14T06:09:55.373Z,5.97
2018-11-14T06:10:30.229Z,6.47
2018-11-14T06:11:04.677Z,6.45
2018-11-14T06:11:38.820Z,5.60
2018-11-14T06:12:12.938Z,4.72
2018-11-14T06:12:47.148Z,5.87
2018-11-14T06:13:21.056Z,5.53
2018-11-14T06:13:55.622Z,6.00
2018-11-14T06:14:29.502Z,5.57
2018-11-14T06:15:04.211Z,6.00
2018-11-14T06:15:38.877Z,5.75
2018-11-14T06:16:13.299Z,5.25
2018-11-14T06:16:47.455Z,5.97
2018-11-14T06:17:21.918Z,5.70
2018-11-14T06:17:57.133Z,5.67
2018-11-14T06:18:31.590Z,5.67
2018-11-14T06:19:06.213Z,5.60
2018-11-14T06:19:40.313Z,5.13
2018-11-14T06:20:17.853Z,6.03
2018-11-14T06:20:51.977Z,7.83
2018-11-14T06:21:26.116Z,5.95
2018-11-14T06:22:00.304Z,6.20
2018-11-14T06:22:34.581Z,5.42
2018-11-14T06:23:10.126Z,5.65
2018-11-14T06:23:44.851Z,6.45
2018-11-14T06:24:19.578Z,6.08
2018-11-14T06:24:53.714Z,6.30
2018-11-14T06:25:30.358Z,6.60
2018-11-14T06:26:04.784Z,5.97
2018-11-14T06:26:38.929Z,5.92
2018-11-14T06:27:13.047Z,5.25
2018-11-14T06:27:47.675Z,5.47
2018-11-14T06:28:22.144Z,5.92
2018-11-14T06:28:56.302Z,5.35
2018-11-14T06:29:30.665Z,5.72
2018-11-14T06:30:06.682Z,6.37
2018-11-14T06:30:42.200Z,6.28
2018-11-14T06:31:16.966Z,5.83
2018-11-14T06:31:51.287Z,5.05
2018-11-14T06:32:25.700Z,5.97
2018-11-14T06:33:00.902Z,6.33
2018-11-14T06:33:35.024Z,6.75
2018-11-14T06:34:08.854Z,6.00
2018-11-14T06:34:42.734Z,5.43
2018-11-14T06:35:17.330Z,6.62
2018-11-14T06:35:52.161Z,6.78
2018-11-14T06:36:26.278Z,6.03
2018-11-14T06:37:01.154Z,5.65
2018-11-14T06:37:36.295Z,6.05
2018-11-14T06:38:10.662Z,5.62
2018-11-14T06:38:44.794Z,5.70
2018-11-14T06:39:19.250Z,6.95
2018-11-14T06:39:53.402Z,6.47
2018-11-14T06:40:27.891Z,5.55
2018-11-14T06:41:02.396Z,6.22
2018-11-14T06:41:36.915Z,5.65
2018-11-14T06:42:11.734Z,5.55
2018-11-14T06:42:45.880Z,5.28
2018-11-14T06:43:20.145Z,6.80
2018-11-14T06:43:54.299Z,6.53
2018-11-14T06:44:28.807Z,5.83
2018-11-14T06:45:02.994Z,6.25
2018-11-14T06:45:37.261Z,5.85
2018-11-14T06:46:11.670Z,6.72
2018-11-14T06:46:45.770Z,6.33
2018-11-14T06:47:20.180Z,6.00
2018-11-14T06:47:55.948Z,6.45
2018-11-14T06:48:30.402Z,5.75
2018-11-14T06:49:04.546Z,6.15
2018-11-14T06:49:38.725Z,5.95
2018-11-14T06:50:13.642Z,6.03
2018-11-14T06:50:47.776Z,5.53
2018-11-14T06:51:21.864Z,6.92
2018-11-14T06:51:55.706Z,5.50
2018-11-14T06:52:30.296Z,7.47
2018-11-14T06:53:05.374Z,6.20
2018-11-14T06:53:39.435Z,6.20
2018-11-14T06:54:13.871Z,6.10
2018-11-14T06:54:47.992Z,6.60
2018-11-14T06:55:22.533Z,6.03
2018-11-14T06:55:56.958Z,6.37
2018-11-14T06:56:31.043Z,5.42
2018-11-14T06:57:04.885Z,6.47
2018-11-14T06:57:39.323Z,5.83
2018-11-14T06:58:13.388Z,7.20
2018-11-14T06:58:47.324Z,6.77
2018-11-14T06:59:21.649Z,5.95
2018-11-14T06:59:56.025Z,6.55
2018-11-14T07:00:32.136Z,5.62
2018-11-14T07:01:06.238Z,6.22
2018-11-14T07:01:40.477Z,5.50
2018-11-14T07:02:14.608Z,5.87
2018-11-14T07:02:48.734Z,5.80
2018-11-14T07:03:23.319Z,6.25
2018-11-14T07:03:58.172Z,6.72
2018-11-14T07:04:32.269Z,5.40
2018-11-14T07:05:08.210Z,5.80
2018-11-14T07:05:42.526Z,6.47
2018-11-14T07:06:17.314Z,5.60
2018-11-14T07:06:51.642Z,5.80
2018-11-14T07:07:25.731Z,6.37
2018-11-14T07:08:00.558Z,6.10
2018-11-14T07:08:35.020Z,6.10
2018-11-14T07:09:11.060Z,6.97
2018-11-14T07:09:45.176Z,5.60
2018-11-14T07:10:20.740Z,5.90
2018-11-14T07:10:55.430Z,5.65
2018-11-14T07:11:29.678Z,4.97
2018-11-14T07:12:03.854Z,6.35
2018-11-14T07:12:38.300Z,5.87
2018-11-14T07:13:13.283Z,6.00
2018-11-14T07:13:47.765Z,6.83
2018-11-14T07:14:21.628Z,5.70
2018-11-14T07:14:55.748Z,6.05
2018-11-14T07:15:30.190Z,5.25
2018-11-14T07:16:04.655Z,6.20
2018-11-14T07:16:38.728Z,6.33
2018-11-14T07:17:13.178Z,7.10
2018-11-14T07:17:48.069Z,6.03
2018-11-14T07:18:22.324Z,6.22
2018-11-14T07:18:56.464Z,5.95
2018-11-14T07:19:30.590Z,5.90
2018-11-14T07:20:08.310Z,6.00
2018-11-14T07:20:44.036Z,6.28
2018-11-14T07:21:18.135Z,5.40
2018-11-14T07:21:52.252Z,5.55
2018-11-14T07:22:26.372Z,6.05
2018-11-14T07:23:00.189Z,5.83
2018-11-14T07:23:34.086Z,6.00
2018-11-14T07:24:08.806Z,6.30
2018-11-14T07:24:42.973Z,5.65
2018-11-14T07:25:17.698Z,5.92
2018-11-14T07:25:58.764Z,5.70
2018-11-14T07:26:32.608Z,5.77
2018-11-14T07:27:06.724Z,6.08
2018-11-14T07:27:41.145Z,5.30
2018-11-14T07:28:15.536Z,6.72
2018-11-14T07:28:49.944Z,5.97
2018-11-14T07:29:30.964Z,6.33
2018-11-14T07:30:07.698Z,6.22
2018-11-14T07:30:41.799Z,7.58
2018-11-14T07:31:15.924Z,5.78
2018-11-14T07:31:50.332Z,6.08
2018-11-14T07:32:24.402Z,5.22
2018-11-14T07:33:00.194Z,6.37
2018-11-14T07:33:34.356Z,6.00
2018-11-14T07:34:08.495Z,5.50
2018-11-14T07:34:42.619Z,5.75
2018-11-14T07:35:17.230Z,6.07
2018-11-14T07:35:51.389Z,5.47
2018-11-14T07:36:25.503Z,6.08
2018-11-14T07:36:59.358Z,5.43
2018-11-14T07:37:33.481Z,6.15
2018-11-14T07:38:44.894Z,6.12
2018-11-14T07:39:19.039Z,5.30